sensor_id;sensor_type;location;lat;lon;timestamp;P1;durP1;ratioP1;P2;durP2;ratioP2
55537;SDS011;41383;51.418;7.286;2023-05-17T00:02:17;6.23;;;2.47;;
55537;SDS011;41383;51.418;7.286;2023-05-17T00:04:43;4.15;;;2.20;;
55537;SDS011;41383;51.418;7.286;2023-05-17T00:07:09;9.52;;;3.15;;
55537;SDS011;41383;51.418;7.286;2023-05-17T00:09:34;6.07;;;2.95;;
55537;SDS011;41383;51.418;7.286;2023-05-17T00:11:59;9.43;;;2.80;;
55537;SDS011;41383;51.418;7.286;2023-05-17T00:14:25;9.25;;;3.35;;
55537;SDS011;41383;51.418;7.286;2023-05-17T00:16:50;10.23;;;3.33;;
55537;SDS011;41383;51.418;7.286;2023-05-17T00:19:16;7.90;;;3.60;;
55537;SDS011;41383;51.418;7.286;2023-05-17T00:21:42;11.38;;;2.08;;
55537;SDS011;41383;51.418;7.286;2023-05-17T00:24:07;10.13;;;3.25;;
55537;SDS011;41383;51.418;7.286;2023-05-17T00:26:33;9.40;;;3.03;;
55537;SDS011;41383;51.418;7.286;2023-05-17T00:28:58;6.63;;;3.22;;
55537;SDS011;41383;51.418;7.286;2023-05-17T00:31:23;7.63;;;3.17;;
55537;SDS011;41383;51.418;7.286;2023-05-17T00:33:49;5.47;;;2.80;;
55537;SDS011;41383;51.418;7.286;2023-05-17T00:36:14;8.88;;;4.22;;
55537;SDS011;41383;51.418;7.286;2023-05-17T00:38:39;9.50;;;3.80;;
55537;SDS011;41383;51.418;7.286;2023-05-17T00:41:05;16.63;;;4.57;;
55537;SDS011;41383;51.418;7.286;2023-05-17T00:43:30;6.32;;;3.17;;
55537;SDS011;41383;51.418;7.286;2023-05-17T00:45:55;6.85;;;3.35;;
55537;SDS011;41383;51.418;7.286;2023-05-17T00:48:21;9.43;;;3.60;;
55537;SDS011;41383;51.418;7.286;2023-05-17T00:50:49;14.77;;;3.88;;
55537;SDS011;41383;51.418;7.286;2023-05-17T00:53:15;12.20;;;3.83;;
55537;SDS011;41383;51.418;7.286;2023-05-17T00:55:42;9.98;;;3.67;;
55537;SDS011;41383;51.418;7.286;2023-05-17T00:58:08;16.48;;;4.22;;
55537;SDS011;41383;51.418;7.286;2023-05-17T01:00:34;11.45;;;3.72;;
55537;SDS011;41383;51.418;7.286;2023-05-17T01:03:00;6.40;;;3.20;;
55537;SDS011;41383;51.418;7.286;2023-05-17T01:05:25;8.50;;;3.13;;
55537;SDS011;41383;51.418;7.286;2023-05-17T01:07:52;7.20;;;3.92;;
55537;SDS011;41383;51.418;7.286;2023-05-17T01:10:20;10.90;;;3.95;;
55537;SDS011;41383;51.418;7.286;2023-05-17T01:13:05;7.35;;;3.85;;
55537;SDS011;41383;51.418;7.286;2023-05-17T01:15:35;12.55;;;4.88;;
55537;SDS011;41383;51.418;7.286;2023-05-17T01:18:11;11.35;;;4.45;;
55537;SDS011;41383;51.418;7.286;2023-05-17T01:20:44;7.22;;;3.95;;
55537;SDS011;41383;51.418;7.286;2023-05-17T01:28:21;11.80;;;4.43;;
55537;SDS011;41383;51.418;7.286;2023-05-17T01:30:49;7.28;;;3.38;;
55537;SDS011;41383;51.418;7.286;2023-05-17T01:33:15;9.93;;;3.60;;
55537;SDS011;41383;51.418;7.286;2023-05-17T01:35:45;8.50;;;3.55;;
55537;SDS011;41383;51.418;7.286;2023-05-17T01:38:10;14.20;;;5.18;;
55537;SDS011;41383;51.418;7.286;2023-05-17T01:40:36;6.87;;;4.37;;
55537;SDS011;41383;51.418;7.286;2023-05-17T01:43:12;9.77;;;3.30;;
55537;SDS011;41383;51.418;7.286;2023-05-17T01:45:52;7.30;;;3.53;;
55537;SDS011;41383;51.418;7.286;2023-05-17T01:48:20;16.80;;;4.93;;
55537;SDS011;41383;51.418;7.286;2023-05-17T01:50:52;12.35;;;4.72;;
55537;SDS011;41383;51.418;7.286;2023-05-17T01:53:24;12.23;;;4.22;;
55537;SDS011;41383;51.418;7.286;2023-05-17T01:56:00;10.40;;;4.22;;
55537;SDS011;41383;51.418;7.286;2023-05-17T01:58:28;12.43;;;4.50;;
55537;SDS011;41383;51.418;7.286;2023-05-17T02:00:55;8.90;;;4.07;;
55537;SDS011;41383;51.418;7.286;2023-05-17T02:03:23;13.23;;;4.60;;
55537;SDS011;41383;51.418;7.286;2023-05-17T02:05:51;12.98;;;4.47;;
55537;SDS011;41383;51.418;7.286;2023-05-17T02:08:16;16.00;;;5.40;;
55537;SDS011;41383;51.418;7.286;2023-05-17T02:10:41;12.43;;;4.63;;
55537;SDS011;41383;51.418;7.286;2023-05-17T02:13:07;14.88;;;4.85;;
55537;SDS011;41383;51.418;7.286;2023-05-17T02:15:32;11.37;;;5.00;;
55537;SDS011;41383;51.418;7.286;2023-05-17T02:17:57;17.00;;;4.13;;
55537;SDS011;41383;51.418;7.286;2023-05-17T02:20:22;13.17;;;5.20;;
55537;SDS011;41383;51.418;7.286;2023-05-17T02:22:48;15.38;;;4.63;;
55537;SDS011;41383;51.418;7.286;2023-05-17T02:25:13;14.30;;;5.03;;
55537;SDS011;41383;51.418;7.286;2023-05-17T02:27:38;9.55;;;3.40;;
55537;SDS011;41383;51.418;7.286;2023-05-17T02:30:04;11.63;;;5.40;;
55537;SDS011;41383;51.418;7.286;2023-05-17T02:32:30;12.52;;;4.75;;
55537;SDS011;41383;51.418;7.286;2023-05-17T02:34:56;11.00;;;5.38;;
55537;SDS011;41383;51.418;7.286;2023-05-17T02:37:22;10.75;;;5.18;;
55537;SDS011;41383;51.418;7.286;2023-05-17T02:39:47;9.83;;;4.80;;
55537;SDS011;41383;51.418;7.286;2023-05-17T02:42:13;12.00;;;4.83;;
55537;SDS011;41383;51.418;7.286;2023-05-17T02:44:38;9.48;;;4.22;;
55537;SDS011;41383;51.418;7.286;2023-05-17T02:47:03;9.07;;;5.10;;
55537;SDS011;41383;51.418;7.286;2023-05-17T02:49:29;15.95;;;4.82;;
55537;SDS011;41383;51.418;7.286;2023-05-17T02:51:54;14.60;;;5.50;;
55537;SDS011;41383;51.418;7.286;2023-05-17T02:54:20;18.10;;;6.22;;
55537;SDS011;41383;51.418;7.286;2023-05-17T02:56:45;15.88;;;6.35;;
55537;SDS011;41383;51.418;7.286;2023-05-17T02:59:10;18.87;;;5.10;;
55537;SDS011;41383;51.418;7.286;2023-05-17T03:01:36;14.48;;;5.82;;
55537;SDS011;41383;51.418;7.286;2023-05-17T03:04:01;14.33;;;6.60;;
55537;SDS011;41383;51.418;7.286;2023-05-17T03:06:26;15.07;;;6.40;;
55537;SDS011;41383;51.418;7.286;2023-05-17T03:08:51;16.50;;;4.00;;
55537;SDS011;41383;51.418;7.286;2023-05-17T03:11:17;17.23;;;6.30;;
55537;SDS011;41383;51.418;7.286;2023-05-17T03:13:42;17.70;;;7.43;;
55537;SDS011;41383;51.418;7.286;2023-05-17T03:16:07;13.35;;;6.88;;
55537;SDS011;41383;51.418;7.286;2023-05-17T03:18:33;15.10;;;5.63;;
55537;SDS011;41383;51.418;7.286;2023-05-17T03:20:59;16.48;;;6.32;;
55537;SDS011;41383;51.418;7.286;2023-05-17T03:23:24;15.13;;;7.18;;
55537;SDS011;41383;51.418;7.286;2023-05-17T03:25:50;11.77;;;5.83;;
55537;SDS011;41383;51.418;7.286;2023-05-17T03:28:15;13.50;;;5.97;;
55537;SDS011;41383;51.418;7.286;2023-05-17T03:30:40;16.20;;;5.73;;
55537;SDS011;41383;51.418;7.286;2023-05-17T03:33:06;23.48;;;6.55;;
55537;SDS011;41383;51.418;7.286;2023-05-17T03:35:31;14.53;;;5.97;;
55537;SDS011;41383;51.418;7.286;2023-05-17T03:37:56;14.27;;;6.43;;
55537;SDS011;41383;51.418;7.286;2023-05-17T03:40:21;16.98;;;6.07;;
55537;SDS011;41383;51.418;7.286;2023-05-17T03:42:47;17.77;;;6.43;;
55537;SDS011;41383;51.418;7.286;2023-05-17T03:45:12;19.97;;;8.60;;
55537;SDS011;41383;51.418;7.286;2023-05-17T03:47:37;14.33;;;6.03;;
55537;SDS011;41383;51.418;7.286;2023-05-17T03:50:03;25.77;;;6.57;;
55537;SDS011;41383;51.418;7.286;2023-05-17T03:52:29;21.00;;;6.57;;
55537;SDS011;41383;51.418;7.286;2023-05-17T03:54:54;16.90;;;5.70;;
55537;SDS011;41383;51.418;7.286;2023-05-17T03:57:20;14.02;;;5.28;;
55537;SDS011;41383;51.418;7.286;2023-05-17T03:59:45;9.15;;;4.60;;
55537;SDS011;41383;51.418;7.286;2023-05-17T04:02:10;17.08;;;6.25;;
55537;SDS011;41383;51.418;7.286;2023-05-17T04:04:36;20.83;;;6.90;;
55537;SDS011;41383;51.418;7.286;2023-05-17T04:07:01;13.40;;;6.00;;
55537;SDS011;41383;51.418;7.286;2023-05-17T04:09:26;23.83;;;6.57;;
55537;SDS011;41383;51.418;7.286;2023-05-17T04:11:51;11.70;;;5.57;;
55537;SDS011;41383;51.418;7.286;2023-05-17T04:14:17;16.60;;;7.32;;
55537;SDS011;41383;51.418;7.286;2023-05-17T04:16:43;19.33;;;7.38;;
55537;SDS011;41383;51.418;7.286;2023-05-17T04:19:08;20.75;;;7.93;;
55537;SDS011;41383;51.418;7.286;2023-05-17T04:21:33;21.97;;;7.60;;
55537;SDS011;41383;51.418;7.286;2023-05-17T04:23:59;18.75;;;9.88;;
55537;SDS011;41383;51.418;7.286;2023-05-17T04:26:24;22.48;;;9.10;;
55537;SDS011;41383;51.418;7.286;2023-05-17T04:28:50;19.45;;;9.63;;
55537;SDS011;41383;51.418;7.286;2023-05-17T04:31:16;21.13;;;8.30;;
55537;SDS011;41383;51.418;7.286;2023-05-17T04:33:41;15.30;;;7.45;;
55537;SDS011;41383;51.418;7.286;2023-05-17T04:36:07;30.92;;;8.63;;
55537;SDS011;41383;51.418;7.286;2023-05-17T04:38:32;16.65;;;7.45;;
55537;SDS011;41383;51.418;7.286;2023-05-17T04:41:01;23.60;;;10.35;;
55537;SDS011;41383;51.418;7.286;2023-05-17T04:43:28;22.52;;;10.80;;
55537;SDS011;41383;51.418;7.286;2023-05-17T04:45:55;23.85;;;9.60;;
55537;SDS011;41383;51.418;7.286;2023-05-17T04:48:21;18.77;;;8.05;;
55537;SDS011;41383;51.418;7.286;2023-05-17T04:50:47;17.10;;;8.27;;
55537;SDS011;41383;51.418;7.286;2023-05-17T04:53:12;24.83;;;9.60;;
55537;SDS011;41383;51.418;7.286;2023-05-17T04:55:39;16.17;;;8.27;;
55537;SDS011;41383;51.418;7.286;2023-05-17T04:58:04;17.55;;;9.10;;
55537;SDS011;41383;51.418;7.286;2023-05-17T05:00:29;24.17;;;8.90;;
55537;SDS011;41383;51.418;7.286;2023-05-17T05:02:55;20.63;;;9.43;;
55537;SDS011;41383;51.418;7.286;2023-05-17T05:05:20;16.87;;;8.07;;
55537;SDS011;41383;51.418;7.286;2023-05-17T05:07:45;30.00;;;9.85;;
55537;SDS011;41383;51.418;7.286;2023-05-17T05:10:11;26.27;;;8.53;;
55537;SDS011;41383;51.418;7.286;2023-05-17T05:12:36;17.07;;;9.37;;
55537;SDS011;41383;51.418;7.286;2023-05-17T05:15:02;16.70;;;7.95;;
55537;SDS011;41383;51.418;7.286;2023-05-17T05:17:29;20.25;;;8.65;;
55537;SDS011;41383;51.418;7.286;2023-05-17T05:19:54;19.77;;;9.15;;
55537;SDS011;41383;51.418;7.286;2023-05-17T05:22:19;22.40;;;8.33;;
55537;SDS011;41383;51.418;7.286;2023-05-17T05:24:45;26.40;;;8.63;;
55537;SDS011;41383;51.418;7.286;2023-05-17T05:27:10;16.53;;;9.33;;
55537;SDS011;41383;51.418;7.286;2023-05-17T05:29:35;15.37;;;7.90;;
55537;SDS011;41383;51.418;7.286;2023-05-17T05:32:00;13.23;;;7.00;;
55537;SDS011;41383;51.418;7.286;2023-05-17T05:34:26;14.82;;;6.63;;
55537;SDS011;41383;51.418;7.286;2023-05-17T05:36:53;20.27;;;7.30;;
55537;SDS011;41383;51.418;7.286;2023-05-17T05:39:18;22.73;;;7.28;;
55537;SDS011;41383;51.418;7.286;2023-05-17T05:41:44;15.48;;;6.00;;
55537;SDS011;41383;51.418;7.286;2023-05-17T05:44:09;15.90;;;6.57;;
55537;SDS011;41383;51.418;7.286;2023-05-17T05:46:35;23.13;;;6.87;;
55537;SDS011;41383;51.418;7.286;2023-05-17T05:49:00;18.02;;;5.10;;
55537;SDS011;41383;51.418;7.286;2023-05-17T05:51:25;15.00;;;4.60;;
55537;SDS011;41383;51.418;7.286;2023-05-17T05:53:51;16.87;;;5.03;;
55537;SDS011;41383;51.418;7.286;2023-05-17T05:56:16;19.55;;;4.75;;
55537;SDS011;41383;51.418;7.286;2023-05-17T05:58:41;9.90;;;3.50;;
55537;SDS011;41383;51.418;7.286;2023-05-17T06:01:07;13.70;;;3.93;;
55537;SDS011;41383;51.418;7.286;2023-05-17T06:03:32;15.07;;;4.17;;
55537;SDS011;41383;51.418;7.286;2023-05-17T06:05:57;22.02;;;6.18;;
55537;SDS011;41383;51.418;7.286;2023-05-17T06:08:23;16.73;;;5.65;;
55537;SDS011;41383;51.418;7.286;2023-05-17T06:10:48;14.77;;;4.00;;
55537;SDS011;41383;51.418;7.286;2023-05-17T06:13:13;15.18;;;4.70;;
55537;SDS011;41383;51.418;7.286;2023-05-17T06:15:39;13.97;;;5.33;;
55537;SDS011;41383;51.418;7.286;2023-05-17T06:18:05;33.63;;;4.32;;
55537;SDS011;41383;51.418;7.286;2023-05-17T06:20:30;10.60;;;3.53;;
55537;SDS011;41383;51.418;7.286;2023-05-17T06:22:55;16.87;;;4.63;;
55537;SDS011;41383;51.418;7.286;2023-05-17T06:25:20;16.65;;;3.42;;
55537;SDS011;41383;51.418;7.286;2023-05-17T06:27:46;15.90;;;4.72;;
55537;SDS011;41383;51.418;7.286;2023-05-17T06:30:11;14.57;;;3.70;;
55537;SDS011;41383;51.418;7.286;2023-05-17T06:32:37;15.40;;;3.65;;
55537;SDS011;41383;51.418;7.286;2023-05-17T06:35:03;8.80;;;3.30;;
55537;SDS011;41383;51.418;7.286;2023-05-17T06:37:28;14.38;;;3.72;;
55537;SDS011;41383;51.418;7.286;2023-05-17T06:40:00;12.80;;;4.35;;
55537;SDS011;41383;51.418;7.286;2023-05-17T06:42:31;9.32;;;2.70;;
55537;SDS011;41383;51.418;7.286;2023-05-17T06:44:56;16.30;;;3.33;;
55537;SDS011;41383;51.418;7.286;2023-05-17T06:47:22;14.75;;;4.18;;
55537;SDS011;41383;51.418;7.286;2023-05-17T06:49:47;12.65;;;2.88;;
55537;SDS011;41383;51.418;7.286;2023-05-17T06:52:12;13.07;;;3.93;;
55537;SDS011;41383;51.418;7.286;2023-05-17T06:54:38;13.37;;;3.07;;
55537;SDS011;41383;51.418;7.286;2023-05-17T06:57:03;15.30;;;3.85;;
55537;SDS011;41383;51.418;7.286;2023-05-17T06:59:29;14.75;;;2.53;;
55537;SDS011;41383;51.418;7.286;2023-05-17T07:01:54;7.20;;;2.00;;
55537;SDS011;41383;51.418;7.286;2023-05-17T07:04:20;11.27;;;2.25;;
55537;SDS011;41383;51.418;7.286;2023-05-17T07:06:45;14.38;;;4.20;;
55537;SDS011;41383;51.418;7.286;2023-05-17T07:09:11;13.60;;;3.40;;
55537;SDS011;41383;51.418;7.286;2023-05-17T07:11:36;11.18;;;3.13;;
55537;SDS011;41383;51.418;7.286;2023-05-17T07:14:01;11.77;;;2.33;;
55537;SDS011;41383;51.418;7.286;2023-05-17T07:16:27;10.30;;;4.43;;
55537;SDS011;41383;51.418;7.286;2023-05-17T07:18:52;9.65;;;2.72;;
55537;SDS011;41383;51.418;7.286;2023-05-17T07:21:17;11.15;;;3.25;;
55537;SDS011;41383;51.418;7.286;2023-05-17T07:23:43;12.90;;;3.00;;
55537;SDS011;41383;51.418;7.286;2023-05-17T07:26:08;14.10;;;2.67;;
55537;SDS011;41383;51.418;7.286;2023-05-17T07:28:33;10.38;;;2.53;;
55537;SDS011;41383;51.418;7.286;2023-05-17T07:30:58;12.47;;;3.53;;
55537;SDS011;41383;51.418;7.286;2023-05-17T07:33:24;12.73;;;4.00;;
55537;SDS011;41383;51.418;7.286;2023-05-17T07:35:49;15.03;;;2.53;;
55537;SDS011;41383;51.418;7.286;2023-05-17T07:38:15;14.18;;;2.60;;
55537;SDS011;41383;51.418;7.286;2023-05-17T07:40:40;12.80;;;2.75;;
55537;SDS011;41383;51.418;7.286;2023-05-17T07:43:05;6.30;;;2.33;;
55537;SDS011;41383;51.418;7.286;2023-05-17T07:45:31;14.67;;;2.40;;
55537;SDS011;41383;51.418;7.286;2023-05-17T07:47:56;4.65;;;2.00;;
55537;SDS011;41383;51.418;7.286;2023-05-17T07:50:21;24.00;;;3.80;;
55537;SDS011;41383;51.418;7.286;2023-05-17T07:52:47;18.48;;;4.45;;
55537;SDS011;41383;51.418;7.286;2023-05-17T07:55:12;8.68;;;2.88;;
55537;SDS011;41383;51.418;7.286;2023-05-17T07:57:37;8.63;;;2.03;;
55537;SDS011;41383;51.418;7.286;2023-05-17T08:00:03;9.80;;;3.17;;
55537;SDS011;41383;51.418;7.286;2023-05-17T08:02:28;8.65;;;2.20;;
55537;SDS011;41383;51.418;7.286;2023-05-17T08:04:54;7.78;;;1.67;;
55537;SDS011;41383;51.418;7.286;2023-05-17T08:07:19;12.23;;;3.50;;
55537;SDS011;41383;51.418;7.286;2023-05-17T08:09:44;12.70;;;2.80;;
55537;SDS011;41383;51.418;7.286;2023-05-17T08:12:10;36.00;;;4.25;;
55537;SDS011;41383;51.418;7.286;2023-05-17T08:14:35;8.93;;;2.38;;
55537;SDS011;41383;51.418;7.286;2023-05-17T08:17:00;19.43;;;6.20;;
55537;SDS011;41383;51.418;7.286;2023-05-17T08:19:26;9.40;;;2.60;;
55537;SDS011;41383;51.418;7.286;2023-05-17T08:21:51;9.05;;;1.88;;
55537;SDS011;41383;51.418;7.286;2023-05-17T08:24:16;11.25;;;2.55;;
55537;SDS011;41383;51.418;7.286;2023-05-17T08:26:41;9.73;;;2.63;;
55537;SDS011;41383;51.418;7.286;2023-05-17T08:29:07;13.67;;;3.40;;
55537;SDS011;41383;51.418;7.286;2023-05-17T08:31:32;8.23;;;2.13;;
55537;SDS011;41383;51.418;7.286;2023-05-17T08:33:57;4.55;;;1.77;;
55537;SDS011;41383;51.418;7.286;2023-05-17T08:36:23;11.98;;;2.38;;
55537;SDS011;41383;51.418;7.286;2023-05-17T08:38:48;8.43;;;2.97;;
55537;SDS011;41383;51.418;7.286;2023-05-17T08:41:14;9.32;;;1.85;;
55537;SDS011;41383;51.418;7.286;2023-05-17T08:43:40;8.98;;;2.08;;
55537;SDS011;41383;51.418;7.286;2023-05-17T08:46:06;10.18;;;2.60;;
55537;SDS011;41383;51.418;7.286;2023-05-17T08:48:33;12.43;;;3.50;;
55537;SDS011;41383;51.418;7.286;2023-05-17T08:51:05;15.88;;;3.83;;
55537;SDS011;41383;51.418;7.286;2023-05-17T08:53:32;5.35;;;1.77;;
55537;SDS011;41383;51.418;7.286;2023-05-17T08:55:59;13.48;;;3.47;;
55537;SDS011;41383;51.418;7.286;2023-05-17T08:58:30;12.88;;;3.78;;
55537;SDS011;41383;51.418;7.286;2023-05-17T09:03:25;8.50;;;2.30;;
55537;SDS011;41383;51.418;7.286;2023-05-17T09:05:51;10.10;;;2.72;;
55537;SDS011;41383;51.418;7.286;2023-05-17T09:08:21;10.77;;;2.05;;
55537;SDS011;41383;51.418;7.286;2023-05-17T09:10:47;6.10;;;2.22;;
55537;SDS011;41383;51.418;7.286;2023-05-17T09:13:12;9.85;;;2.08;;
55537;SDS011;41383;51.418;7.286;2023-05-17T09:15:41;19.63;;;2.43;;
55537;SDS011;41383;51.418;7.286;2023-05-17T09:18:08;8.05;;;2.30;;
55537;SDS011;41383;51.418;7.286;2023-05-17T09:20:36;18.17;;;3.92;;
55537;SDS011;41383;51.418;7.286;2023-05-17T09:23:02;8.80;;;2.30;;
55537;SDS011;41383;51.418;7.286;2023-05-17T09:25:29;7.28;;;2.15;;
55537;SDS011;41383;51.418;7.286;2023-05-17T09:27:59;7.07;;;1.95;;
55537;SDS011;41383;51.418;7.286;2023-05-17T09:30:28;4.82;;;2.42;;
55537;SDS011;41383;51.418;7.286;2023-05-17T09:32:55;15.20;;;3.45;;
55537;SDS011;41383;51.418;7.286;2023-05-17T09:35:27;12.68;;;4.65;;
55537;SDS011;41383;51.418;7.286;2023-05-17T09:37:54;7.32;;;1.90;;
55537;SDS011;41383;51.418;7.286;2023-05-17T09:40:38;6.80;;;1.70;;
55537;SDS011;41383;51.418;7.286;2023-05-17T09:43:07;13.32;;;3.00;;
55537;SDS011;41383;51.418;7.286;2023-05-17T09:45:32;8.98;;;2.92;;
55537;SDS011;41383;51.418;7.286;2023-05-17T09:48:15;6.82;;;2.35;;
55537;SDS011;41383;51.418;7.286;2023-05-17T09:50:47;9.82;;;2.53;;
55537;SDS011;41383;51.418;7.286;2023-05-17T09:55:56;12.63;;;2.45;;
55537;SDS011;41383;51.418;7.286;2023-05-17T09:58:22;14.90;;;2.40;;
55537;SDS011;41383;51.418;7.286;2023-05-17T10:00:52;9.02;;;2.58;;
55537;SDS011;41383;51.418;7.286;2023-05-17T10:03:19;8.60;;;1.77;;
55537;SDS011;41383;51.418;7.286;2023-05-17T10:05:45;7.80;;;1.90;;
55537;SDS011;41383;51.418;7.286;2023-05-17T10:08:13;10.02;;;3.30;;
55537;SDS011;41383;51.418;7.286;2023-05-17T10:10:39;8.45;;;2.13;;
55537;SDS011;41383;51.418;7.286;2023-05-17T10:13:05;7.75;;;2.00;;
55537;SDS011;41383;51.418;7.286;2023-05-17T10:15:34;8.73;;;1.60;;
55537;SDS011;41383;51.418;7.286;2023-05-17T10:18:02;7.10;;;1.90;;
55537;SDS011;41383;51.418;7.286;2023-05-17T10:20:28;6.55;;;2.05;;
55537;SDS011;41383;51.418;7.286;2023-05-17T10:22:54;8.48;;;2.65;;
55537;SDS011;41383;51.418;7.286;2023-05-17T10:25:21;5.85;;;1.90;;
55537;SDS011;41383;51.418;7.286;2023-05-17T10:27:47;7.47;;;1.88;;
55537;SDS011;41383;51.418;7.286;2023-05-17T10:30:14;17.67;;;3.38;;
55537;SDS011;41383;51.418;7.286;2023-05-17T10:32:42;7.45;;;2.45;;
55537;SDS011;41383;51.418;7.286;2023-05-17T10:35:08;10.43;;;2.40;;
55537;SDS011;41383;51.418;7.286;2023-05-17T10:37:34;9.20;;;2.00;;
55537;SDS011;41383;51.418;7.286;2023-05-17T10:39:59;7.03;;;1.98;;
55537;SDS011;41383;51.418;7.286;2023-05-17T10:42:25;6.78;;;1.80;;
55537;SDS011;41383;51.418;7.286;2023-05-17T10:44:52;18.00;;;2.25;;
55537;SDS011;41383;51.418;7.286;2023-05-17T10:47:18;9.18;;;2.65;;
55537;SDS011;41383;51.418;7.286;2023-05-17T10:49:44;18.98;;;3.20;;
55537;SDS011;41383;51.418;7.286;2023-05-17T10:52:12;8.82;;;2.78;;
55537;SDS011;41383;51.418;7.286;2023-05-17T10:54:40;11.82;;;3.53;;
55537;SDS011;41383;51.418;7.286;2023-05-17T10:57:07;24.20;;;3.20;;
55537;SDS011;41383;51.418;7.286;2023-05-17T10:59:33;10.63;;;2.03;;
55537;SDS011;41383;51.418;7.286;2023-05-17T11:02:06;7.13;;;2.40;;
55537;SDS011;41383;51.418;7.286;2023-05-17T11:04:33;7.88;;;1.70;;
55537;SDS011;41383;51.418;7.286;2023-05-17T11:09:41;7.97;;;1.95;;
55537;SDS011;41383;51.418;7.286;2023-05-17T11:12:07;10.15;;;2.63;;
55537;SDS011;41383;51.418;7.286;2023-05-17T11:17:15;6.85;;;2.78;;
55537;SDS011;41383;51.418;7.286;2023-05-17T11:22:37;7.40;;;2.45;;
55537;SDS011;41383;51.418;7.286;2023-05-17T11:25:06;10.20;;;3.17;;
55537;SDS011;41383;51.418;7.286;2023-05-17T11:27:42;6.90;;;1.88;;
55537;SDS011;41383;51.418;7.286;2023-05-17T11:30:16;5.45;;;2.80;;
55537;SDS011;41383;51.418;7.286;2023-05-17T11:32:51;9.95;;;2.40;;
55537;SDS011;41383;51.418;7.286;2023-05-17T11:35:18;4.75;;;1.80;;
55537;SDS011;41383;51.418;7.286;2023-05-17T11:37:47;5.45;;;2.13;;
55537;SDS011;41383;51.418;7.286;2023-05-17T11:40:22;6.55;;;1.90;;
55537;SDS011;41383;51.418;7.286;2023-05-17T11:45:49;7.60;;;2.00;;
55537;SDS011;41383;51.418;7.286;2023-05-17T11:48:21;7.40;;;1.77;;
55537;SDS011;41383;51.418;7.286;2023-05-17T11:50:48;6.22;;;1.80;;
55537;SDS011;41383;51.418;7.286;2023-05-17T11:53:14;5.88;;;2.47;;
55537;SDS011;41383;51.418;7.286;2023-05-17T11:55:41;7.50;;;2.40;;
55537;SDS011;41383;51.418;7.286;2023-05-17T11:58:18;6.90;;;2.30;;
55537;SDS011;41383;51.418;7.286;2023-05-17T12:00:44;7.30;;;2.55;;
55537;SDS011;41383;51.418;7.286;2023-05-17T12:03:19;9.73;;;1.92;;
55537;SDS011;41383;51.418;7.286;2023-05-17T12:05:47;6.20;;;1.90;;
55537;SDS011;41383;51.418;7.286;2023-05-17T12:08:17;7.22;;;1.70;;
55537;SDS011;41383;51.418;7.286;2023-05-17T12:10:45;9.23;;;2.03;;
55537;SDS011;41383;51.418;7.286;2023-05-17T12:13:11;4.32;;;2.22;;
55537;SDS011;41383;51.418;7.286;2023-05-17T12:15:36;8.02;;;2.67;;
55537;SDS011;41383;51.418;7.286;2023-05-17T12:18:03;7.68;;;1.83;;
55537;SDS011;41383;51.418;7.286;2023-05-17T12:20:28;6.13;;;1.60;;
55537;SDS011;41383;51.418;7.286;2023-05-17T12:22:56;15.27;;;3.13;;
55537;SDS011;41383;51.418;7.286;2023-05-17T12:25:22;9.68;;;1.98;;
55537;SDS011;41383;51.418;7.286;2023-05-17T12:27:54;8.23;;;1.92;;
55537;SDS011;41383;51.418;7.286;2023-05-17T12:30:37;7.80;;;1.80;;
55537;SDS011;41383;51.418;7.286;2023-05-17T12:33:02;9.98;;;2.58;;
55537;SDS011;41383;51.418;7.286;2023-05-17T12:35:28;6.43;;;2.17;;
55537;SDS011;41383;51.418;7.286;2023-05-17T12:37:54;7.80;;;2.90;;
55537;SDS011;41383;51.418;7.286;2023-05-17T12:40:19;4.90;;;1.90;;
55537;SDS011;41383;51.418;7.286;2023-05-17T12:42:45;5.47;;;1.92;;
55537;SDS011;41383;51.418;7.286;2023-05-17T12:45:11;14.48;;;3.15;;
55537;SDS011;41383;51.418;7.286;2023-05-17T12:47:37;8.15;;;2.25;;
55537;SDS011;41383;51.418;7.286;2023-05-17T12:50:02;7.40;;;2.05;;
55537;SDS011;41383;51.418;7.286;2023-05-17T12:52:33;7.90;;;1.77;;
55537;SDS011;41383;51.418;7.286;2023-05-17T12:55:03;6.18;;;1.75;;
55537;SDS011;41383;51.418;7.286;2023-05-17T12:57:29;7.28;;;1.70;;
55537;SDS011;41383;51.418;7.286;2023-05-17T12:59:54;5.60;;;2.75;;
55537;SDS011;41383;51.418;7.286;2023-05-17T13:02:19;14.95;;;2.47;;
55537;SDS011;41383;51.418;7.286;2023-05-17T13:04:45;11.75;;;2.17;;
55537;SDS011;41383;51.418;7.286;2023-05-17T13:07:11;8.40;;;2.42;;
55537;SDS011;41383;51.418;7.286;2023-05-17T13:09:46;4.55;;;1.63;;
55537;SDS011;41383;51.418;7.286;2023-05-17T13:12:16;10.57;;;1.80;;
55537;SDS011;41383;51.418;7.286;2023-05-17T13:14:47;4.90;;;1.70;;
55537;SDS011;41383;51.418;7.286;2023-05-17T13:19:48;4.07;;;1.42;;
55537;SDS011;41383;51.418;7.286;2023-05-17T13:22:13;9.43;;;1.85;;
55537;SDS011;41383;51.418;7.286;2023-05-17T13:24:40;6.43;;;1.73;;
55537;SDS011;41383;51.418;7.286;2023-05-17T13:27:06;9.68;;;2.15;;
55537;SDS011;41383;51.418;7.286;2023-05-17T13:29:32;6.55;;;2.17;;
55537;SDS011;41383;51.418;7.286;2023-05-17T13:31:59;7.03;;;2.88;;
55537;SDS011;41383;51.418;7.286;2023-05-17T13:34:25;7.30;;;2.00;;
55537;SDS011;41383;51.418;7.286;2023-05-17T13:36:50;3.88;;;1.60;;
55537;SDS011;41383;51.418;7.286;2023-05-17T13:39:15;3.63;;;1.60;;
55537;SDS011;41383;51.418;7.286;2023-05-17T13:41:41;9.15;;;1.88;;
55537;SDS011;41383;51.418;7.286;2023-05-17T13:44:07;7.32;;;1.60;;
55537;SDS011;41383;51.418;7.286;2023-05-17T13:46:32;5.88;;;1.50;;
55537;SDS011;41383;51.418;7.286;2023-05-17T13:48:57;3.27;;;1.40;;
55537;SDS011;41383;51.418;7.286;2023-05-17T13:51:23;12.10;;;1.73;;
55537;SDS011;41383;51.418;7.286;2023-05-17T13:53:49;6.95;;;1.77;;
55537;SDS011;41383;51.418;7.286;2023-05-17T13:56:15;7.28;;;1.77;;
55537;SDS011;41383;51.418;7.286;2023-05-17T13:58:40;6.18;;;1.77;;
55537;SDS011;41383;51.418;7.286;2023-05-17T14:01:05;7.10;;;1.92;;
55537;SDS011;41383;51.418;7.286;2023-05-17T14:03:31;10.68;;;2.13;;
55537;SDS011;41383;51.418;7.286;2023-05-17T14:05:56;9.02;;;1.67;;
55537;SDS011;41383;51.418;7.286;2023-05-17T14:08:22;6.47;;;1.37;;
55537;SDS011;41383;51.418;7.286;2023-05-17T14:10:47;11.95;;;2.75;;
55537;SDS011;41383;51.418;7.286;2023-05-17T14:13:12;4.47;;;1.40;;
55537;SDS011;41383;51.418;7.286;2023-05-17T14:15:38;5.87;;;1.93;;
55537;SDS011;41383;51.418;7.286;2023-05-17T14:18:04;5.13;;;1.80;;
55537;SDS011;41383;51.418;7.286;2023-05-17T14:20:31;6.28;;;1.63;;
55537;SDS011;41383;51.418;7.286;2023-05-17T14:22:56;8.18;;;2.08;;
55537;SDS011;41383;51.418;7.286;2023-05-17T14:25:21;6.47;;;1.58;;
55537;SDS011;41383;51.418;7.286;2023-05-17T14:27:47;7.60;;;1.60;;
55537;SDS011;41383;51.418;7.286;2023-05-17T14:30:12;6.18;;;1.77;;
55537;SDS011;41383;51.418;7.286;2023-05-17T14:32:38;7.00;;;1.73;;
55537;SDS011;41383;51.418;7.286;2023-05-17T14:35:05;28.48;;;4.95;;
55537;SDS011;41383;51.418;7.286;2023-05-17T14:37:31;7.57;;;2.15;;
55537;SDS011;41383;51.418;7.286;2023-05-17T14:39:56;9.50;;;2.85;;
55537;SDS011;41383;51.418;7.286;2023-05-17T14:42:22;6.73;;;2.67;;
55537;SDS011;41383;51.418;7.286;2023-05-17T14:44:47;9.57;;;3.10;;
55537;SDS011;41383;51.418;7.286;2023-05-17T14:47:12;5.20;;;1.90;;
55537;SDS011;41383;51.418;7.286;2023-05-17T14:49:37;6.53;;;1.45;;
55537;SDS011;41383;51.418;7.286;2023-05-17T14:52:03;6.63;;;1.60;;
55537;SDS011;41383;51.418;7.286;2023-05-17T14:54:28;7.72;;;1.98;;
55537;SDS011;41383;51.418;7.286;2023-05-17T14:56:56;8.13;;;2.22;;
55537;SDS011;41383;51.418;7.286;2023-05-17T14:59:21;4.67;;;1.50;;
55537;SDS011;41383;51.418;7.286;2023-05-17T15:01:46;5.77;;;1.53;;